5PS4 weather

Public forecast

Using degrees Fahrenheit for public forecast. Weather courtesy of forecast.io.

Closest aviation weather report (METAR) to Hansen Airport

Closest report is Heritage Field, 6.3 nm (11.6 km) S. Retrieved 2020/08/12 23:54 UTC (27 minutes ago):

KPTW 122354Z AUTO 06003KT 9SM CLR 25/22 A3005 RMK AO2 SLP173 60000 T02500222 10311 20239 55001

Closest aviation forecast (TAF) to Hansen Airport

Closest forecast is Reading Regional Carl A Spaatz Field, 17.8 nm (33.0 km) W. Retrieved 2020-08-13 00:22 UTC (0 seconds ago):

TAF KRDG 122320Z 1300/1324 12005KT P6SM SCT050 FM130300 00000KT P6SM BKN150 FM130700 00000KT 4SM BR VCSH BKN035 FM131300 VRB03KT P6SM BKN150 PROB30 1315/1320 4SM TSRA BKN025CB